sensor_id;sensor_type;location;lat;lon;timestamp;P1;durP1;ratioP1;P2;durP2;ratioP2
34204;SDS011;20471;49.680;20.074;2023-04-06T00:02:03;28.20;;;14.50;;
34204;SDS011;20471;49.680;20.074;2023-04-06T00:04:31;34.30;;;17.00;;
34204;SDS011;20471;49.680;20.074;2023-04-06T00:06:59;36.90;;;17.70;;
34204;SDS011;20471;49.680;20.074;2023-04-06T00:09:27;25.70;;;15.50;;
34204;SDS011;20471;49.680;20.074;2023-04-06T00:11:55;26.70;;;15.40;;
34204;SDS011;20471;49.680;20.074;2023-04-06T00:14:24;24.00;;;14.20;;
34204;SDS011;20471;49.680;20.074;2023-04-06T00:16:52;21.90;;;13.60;;
34204;SDS011;20471;49.680;20.074;2023-04-06T00:19:20;25.80;;;14.60;;
34204;SDS011;20471;49.680;20.074;2023-04-06T00:21:48;27.20;;;14.60;;
34204;SDS011;20471;49.680;20.074;2023-04-06T00:24:16;24.20;;;15.30;;
34204;SDS011;20471;49.680;20.074;2023-04-06T00:26:44;25.80;;;14.80;;
34204;SDS011;20471;49.680;20.074;2023-04-06T00:29:12;26.30;;;15.00;;
34204;SDS011;20471;49.680;20.074;2023-04-06T00:31:40;26.50;;;13.90;;
34204;SDS011;20471;49.680;20.074;2023-04-06T00:34:09;23.00;;;14.00;;
34204;SDS011;20471;49.680;20.074;2023-04-06T00:36:37;26.00;;;13.90;;
34204;SDS011;20471;49.680;20.074;2023-04-06T00:39:05;24.90;;;14.60;;
34204;SDS011;20471;49.680;20.074;2023-04-06T00:41:33;24.30;;;14.40;;
34204;SDS011;20471;49.680;20.074;2023-04-06T00:44:01;25.10;;;13.50;;
34204;SDS011;20471;49.680;20.074;2023-04-06T00:46:29;22.50;;;14.20;;
34204;SDS011;20471;49.680;20.074;2023-04-06T00:48:57;24.50;;;13.70;;
34204;SDS011;20471;49.680;20.074;2023-04-06T00:51:25;25.10;;;13.60;;
34204;SDS011;20471;49.680;20.074;2023-04-06T00:53:53;23.60;;;13.40;;
34204;SDS011;20471;49.680;20.074;2023-04-06T00:56:21;22.60;;;13.40;;
34204;SDS011;20471;49.680;20.074;2023-04-06T00:58:50;19.90;;;12.40;;
34204;SDS011;20471;49.680;20.074;2023-04-06T01:01:18;26.70;;;14.40;;
34204;SDS011;20471;49.680;20.074;2023-04-06T01:03:46;26.30;;;15.20;;
34204;SDS011;20471;49.680;20.074;2023-04-06T01:06:16;29.30;;;17.10;;
34204;SDS011;20471;49.680;20.074;2023-04-06T01:08:44;33.20;;;18.10;;
34204;SDS011;20471;49.680;20.074;2023-04-06T01:11:12;33.50;;;18.90;;
34204;SDS011;20471;49.680;20.074;2023-04-06T01:13:40;30.80;;;17.30;;
34204;SDS011;20471;49.680;20.074;2023-04-06T01:16:08;26.90;;;15.90;;
34204;SDS011;20471;49.680;20.074;2023-04-06T01:18:37;30.50;;;16.00;;
34204;SDS011;20471;49.680;20.074;2023-04-06T01:21:06;28.20;;;15.80;;
34204;SDS011;20471;49.680;20.074;2023-04-06T01:23:35;27.10;;;15.10;;
34204;SDS011;20471;49.680;20.074;2023-04-06T01:26:03;27.40;;;16.00;;
34204;SDS011;20471;49.680;20.074;2023-04-06T01:28:31;28.60;;;16.00;;
34204;SDS011;20471;49.680;20.074;2023-04-06T01:30:59;29.60;;;17.30;;
34204;SDS011;20471;49.680;20.074;2023-04-06T01:33:27;27.70;;;16.50;;
34204;SDS011;20471;49.680;20.074;2023-04-06T01:35:55;27.20;;;15.80;;
34204;SDS011;20471;49.680;20.074;2023-04-06T01:38:23;25.50;;;16.10;;
34204;SDS011;20471;49.680;20.074;2023-04-06T01:40:52;25.60;;;14.60;;
34204;SDS011;20471;49.680;20.074;2023-04-06T01:43:21;24.90;;;14.70;;
34204;SDS011;20471;49.680;20.074;2023-04-06T01:45:49;23.90;;;14.80;;
34204;SDS011;20471;49.680;20.074;2023-04-06T01:48:18;23.50;;;14.30;;
34204;SDS011;20471;49.680;20.074;2023-04-06T01:50:46;27.60;;;14.50;;
34204;SDS011;20471;49.680;20.074;2023-04-06T01:53:14;21.80;;;14.30;;
34204;SDS011;20471;49.680;20.074;2023-04-06T01:55:43;22.20;;;13.20;;
34204;SDS011;20471;49.680;20.074;2023-04-06T01:58:11;24.20;;;13.40;;
34204;SDS011;20471;49.680;20.074;2023-04-06T02:00:39;24.20;;;14.30;;
34204;SDS011;20471;49.680;20.074;2023-04-06T02:03:07;25.70;;;13.70;;
34204;SDS011;20471;49.680;20.074;2023-04-06T02:05:35;23.10;;;12.80;;
34204;SDS011;20471;49.680;20.074;2023-04-06T02:08:04;26.10;;;13.70;;
34204;SDS011;20471;49.680;20.074;2023-04-06T02:10:33;27.80;;;15.10;;
34204;SDS011;20471;49.680;20.074;2023-04-06T02:13:02;27.50;;;15.90;;
34204;SDS011;20471;49.680;20.074;2023-04-06T02:15:30;27.10;;;16.80;;
34204;SDS011;20471;49.680;20.074;2023-04-06T02:17:58;37.40;;;19.00;;
34204;SDS011;20471;49.680;20.074;2023-04-06T02:20:27;33.30;;;17.40;;
34204;SDS011;20471;49.680;20.074;2023-04-06T02:22:56;29.10;;;17.00;;
34204;SDS011;20471;49.680;20.074;2023-04-06T02:25:26;32.10;;;18.60;;
34204;SDS011;20471;49.680;20.074;2023-04-06T02:27:54;29.50;;;18.10;;
34204;SDS011;20471;49.680;20.074;2023-04-06T02:30:22;30.30;;;18.90;;
34204;SDS011;20471;49.680;20.074;2023-04-06T02:32:50;31.90;;;19.30;;
34204;SDS011;20471;49.680;20.074;2023-04-06T02:35:18;32.40;;;19.50;;
34204;SDS011;20471;49.680;20.074;2023-04-06T02:37:46;29.60;;;17.10;;
34204;SDS011;20471;49.680;20.074;2023-04-06T02:40:14;29.40;;;16.40;;
34204;SDS011;20471;49.680;20.074;2023-04-06T02:42:43;25.60;;;16.10;;
34204;SDS011;20471;49.680;20.074;2023-04-06T02:45:11;26.90;;;16.80;;
34204;SDS011;20471;49.680;20.074;2023-04-06T02:47:39;36.10;;;19.00;;
34204;SDS011;20471;49.680;20.074;2023-04-06T02:50:07;37.80;;;20.50;;
34204;SDS011;20471;49.680;20.074;2023-04-06T02:52:35;39.30;;;22.00;;
34204;SDS011;20471;49.680;20.074;2023-04-06T02:55:03;41.40;;;21.80;;
34204;SDS011;20471;49.680;20.074;2023-04-06T02:57:33;36.40;;;20.80;;
34204;SDS011;20471;49.680;20.074;2023-04-06T03:00:02;38.60;;;20.10;;
34204;SDS011;20471;49.680;20.074;2023-04-06T03:02:30;38.40;;;21.30;;
34204;SDS011;20471;49.680;20.074;2023-04-06T03:04:58;38.60;;;21.10;;
34204;SDS011;20471;49.680;20.074;2023-04-06T03:07:26;35.70;;;18.90;;
34204;SDS011;20471;49.680;20.074;2023-04-06T03:09:55;37.20;;;20.90;;
34204;SDS011;20471;49.680;20.074;2023-04-06T03:12:23;36.50;;;20.00;;
34204;SDS011;20471;49.680;20.074;2023-04-06T03:14:51;37.50;;;20.90;;
34204;SDS011;20471;49.680;20.074;2023-04-06T03:17:19;39.40;;;20.80;;
34204;SDS011;20471;49.680;20.074;2023-04-06T03:19:47;40.40;;;20.80;;
34204;SDS011;20471;49.680;20.074;2023-04-06T03:22:15;39.70;;;21.40;;
34204;SDS011;20471;49.680;20.074;2023-04-06T03:24:43;43.40;;;22.90;;
34204;SDS011;20471;49.680;20.074;2023-04-06T03:27:11;40.80;;;22.10;;
34204;SDS011;20471;49.680;20.074;2023-04-06T03:29:39;43.20;;;21.90;;
34204;SDS011;20471;49.680;20.074;2023-04-06T03:32:07;46.00;;;24.90;;
34204;SDS011;20471;49.680;20.074;2023-04-06T03:34:36;51.70;;;25.70;;
34204;SDS011;20471;49.680;20.074;2023-04-06T03:37:05;45.30;;;27.00;;
34204;SDS011;20471;49.680;20.074;2023-04-06T03:39:33;47.40;;;26.70;;
34204;SDS011;20471;49.680;20.074;2023-04-06T03:42:01;46.40;;;26.10;;
34204;SDS011;20471;49.680;20.074;2023-04-06T03:44:29;45.30;;;24.30;;
34204;SDS011;20471;49.680;20.074;2023-04-06T03:46:58;44.00;;;24.10;;
34204;SDS011;20471;49.680;20.074;2023-04-06T03:49:26;43.90;;;23.50;;
34204;SDS011;20471;49.680;20.074;2023-04-06T03:51:55;44.00;;;23.90;;
34204;SDS011;20471;49.680;20.074;2023-04-06T03:54:24;50.20;;;27.50;;
34204;SDS011;20471;49.680;20.074;2023-04-06T03:56:52;50.00;;;26.30;;
34204;SDS011;20471;49.680;20.074;2023-04-06T03:59:20;44.50;;;24.80;;
34204;SDS011;20471;49.680;20.074;2023-04-06T04:01:48;39.90;;;22.10;;
34204;SDS011;20471;49.680;20.074;2023-04-06T04:04:16;45.40;;;23.40;;
34204;SDS011;20471;49.680;20.074;2023-04-06T04:06:44;48.00;;;24.80;;
34204;SDS011;20471;49.680;20.074;2023-04-06T04:09:12;51.40;;;26.30;;
34204;SDS011;20471;49.680;20.074;2023-04-06T04:11:40;58.00;;;27.10;;
34204;SDS011;20471;49.680;20.074;2023-04-06T04:14:08;52.00;;;25.30;;
34204;SDS011;20471;49.680;20.074;2023-04-06T04:16:36;46.10;;;23.80;;
34204;SDS011;20471;49.680;20.074;2023-04-06T04:19:05;45.90;;;22.80;;
34204;SDS011;20471;49.680;20.074;2023-04-06T04:21:33;47.90;;;23.80;;
34204;SDS011;20471;49.680;20.074;2023-04-06T04:24:01;53.80;;;26.60;;
34204;SDS011;20471;49.680;20.074;2023-04-06T04:26:30;47.60;;;25.60;;
34204;SDS011;20471;49.680;20.074;2023-04-06T04:28:58;43.50;;;23.70;;
34204;SDS011;20471;49.680;20.074;2023-04-06T04:31:26;49.50;;;24.00;;
34204;SDS011;20471;49.680;20.074;2023-04-06T04:33:54;47.40;;;24.40;;
34204;SDS011;20471;49.680;20.074;2023-04-06T04:36:22;39.20;;;22.20;;
34204;SDS011;20471;49.680;20.074;2023-04-06T04:38:52;42.00;;;23.50;;
34204;SDS011;20471;49.680;20.074;2023-04-06T04:41:20;42.50;;;25.50;;
34204;SDS011;20471;49.680;20.074;2023-04-06T04:43:48;48.30;;;28.20;;
34204;SDS011;20471;49.680;20.074;2023-04-06T04:46:16;47.50;;;28.80;;
34204;SDS011;20471;49.680;20.074;2023-04-06T04:48:44;58.80;;;30.70;;
34204;SDS011;20471;49.680;20.074;2023-04-06T04:51:12;58.50;;;31.60;;
34204;SDS011;20471;49.680;20.074;2023-04-06T04:53:40;57.50;;;30.40;;
34204;SDS011;20471;49.680;20.074;2023-04-06T04:56:08;49.80;;;28.30;;
34204;SDS011;20471;49.680;20.074;2023-04-06T04:58:36;50.10;;;28.70;;
34204;SDS011;20471;49.680;20.074;2023-04-06T05:01:04;50.30;;;26.00;;
34204;SDS011;20471;49.680;20.074;2023-04-06T05:03:32;42.50;;;24.20;;
34204;SDS011;20471;49.680;20.074;2023-04-06T05:06:01;45.90;;;27.40;;
34204;SDS011;20471;49.680;20.074;2023-04-06T05:08:30;44.70;;;26.00;;
34204;SDS011;20471;49.680;20.074;2023-04-06T05:10:58;55.70;;;29.80;;
34204;SDS011;20471;49.680;20.074;2023-04-06T05:13:26;58.60;;;29.60;;
34204;SDS011;20471;49.680;20.074;2023-04-06T05:15:54;61.30;;;29.00;;
34204;SDS011;20471;49.680;20.074;2023-04-06T05:18:22;53.00;;;29.90;;
34204;SDS011;20471;49.680;20.074;2023-04-06T05:20:50;58.50;;;29.30;;
34204;SDS011;20471;49.680;20.074;2023-04-06T05:23:19;66.90;;;30.70;;
34204;SDS011;20471;49.680;20.074;2023-04-06T05:25:47;56.80;;;32.30;;
34204;SDS011;20471;49.680;20.074;2023-04-06T05:28:15;59.10;;;32.00;;
34204;SDS011;20471;49.680;20.074;2023-04-06T05:30:43;53.80;;;30.00;;
34204;SDS011;20471;49.680;20.074;2023-04-06T05:33:12;61.70;;;33.50;;
34204;SDS011;20471;49.680;20.074;2023-04-06T05:35:40;46.70;;;25.20;;
34204;SDS011;20471;49.680;20.074;2023-04-06T05:38:08;35.60;;;20.90;;
34204;SDS011;20471;49.680;20.074;2023-04-06T05:40:37;33.90;;;19.00;;
34204;SDS011;20471;49.680;20.074;2023-04-06T05:43:07;32.10;;;18.40;;
34204;SDS011;20471;49.680;20.074;2023-04-06T05:45:35;32.30;;;18.40;;
34204;SDS011;20471;49.680;20.074;2023-04-06T05:48:03;37.00;;;21.40;;
34204;SDS011;20471;49.680;20.074;2023-04-06T05:50:32;63.40;;;36.40;;
34204;SDS011;20471;49.680;20.074;2023-04-06T05:53:00;75.50;;;40.60;;
34204;SDS011;20471;49.680;20.074;2023-04-06T05:55:28;47.20;;;29.60;;
34204;SDS011;20471;49.680;20.074;2023-04-06T05:57:56;41.40;;;23.60;;
34204;SDS011;20471;49.680;20.074;2023-04-06T06:00:24;38.80;;;23.40;;
34204;SDS011;20471;49.680;20.074;2023-04-06T06:02:52;31.30;;;18.10;;
34204;SDS011;20471;49.680;20.074;2023-04-06T06:05:20;39.00;;;19.80;;
34204;SDS011;20471;49.680;20.074;2023-04-06T06:07:49;31.00;;;18.70;;
34204;SDS011;20471;49.680;20.074;2023-04-06T06:10:17;31.20;;;18.40;;
34204;SDS011;20471;49.680;20.074;2023-04-06T06:12:45;29.70;;;17.90;;
34204;SDS011;20471;49.680;20.074;2023-04-06T06:15:13;32.20;;;18.20;;
34204;SDS011;20471;49.680;20.074;2023-04-06T06:17:41;29.10;;;18.50;;
34204;SDS011;20471;49.680;20.074;2023-04-06T06:20:09;30.00;;;18.00;;
34204;SDS011;20471;49.680;20.074;2023-04-06T06:22:38;41.70;;;19.50;;
34204;SDS011;20471;49.680;20.074;2023-04-06T06:25:06;34.00;;;18.50;;
34204;SDS011;20471;49.680;20.074;2023-04-06T06:27:35;31.20;;;18.40;;
34204;SDS011;20471;49.680;20.074;2023-04-06T06:30:03;31.10;;;18.10;;
34204;SDS011;20471;49.680;20.074;2023-04-06T06:32:31;26.50;;;17.50;;
34204;SDS011;20471;49.680;20.074;2023-04-06T06:35:00;28.20;;;18.70;;
34204;SDS011;20471;49.680;20.074;2023-04-06T06:37:29;43.60;;;19.60;;
34204;SDS011;20471;49.680;20.074;2023-04-06T06:39:57;33.20;;;18.80;;
34204;SDS011;20471;49.680;20.074;2023-04-06T06:42:25;29.80;;;17.30;;
34204;SDS011;20471;49.680;20.074;2023-04-06T06:44:53;28.40;;;17.80;;
34204;SDS011;20471;49.680;20.074;2023-04-06T06:47:22;32.10;;;18.70;;
34204;SDS011;20471;49.680;20.074;2023-04-06T06:49:50;32.70;;;20.80;;
34204;SDS011;20471;49.680;20.074;2023-04-06T06:52:18;32.50;;;20.50;;
34204;SDS011;20471;49.680;20.074;2023-04-06T06:54:46;34.30;;;20.10;;
34204;SDS011;20471;49.680;20.074;2023-04-06T06:57:14;31.70;;;20.70;;
34204;SDS011;20471;49.680;20.074;2023-04-06T06:59:42;30.40;;;19.20;;
34204;SDS011;20471;49.680;20.074;2023-04-06T07:02:10;24.50;;;15.60;;
34204;SDS011;20471;49.680;20.074;2023-04-06T07:04:39;27.10;;;15.60;;
34204;SDS011;20471;49.680;20.074;2023-04-06T07:07:07;26.20;;;14.40;;
34204;SDS011;20471;49.680;20.074;2023-04-06T07:09:35;24.30;;;15.00;;
34204;SDS011;20471;49.680;20.074;2023-04-06T07:12:03;24.30;;;15.40;;
34204;SDS011;20471;49.680;20.074;2023-04-06T07:14:32;22.80;;;14.10;;
34204;SDS011;20471;49.680;20.074;2023-04-06T07:17:00;23.00;;;14.80;;
34204;SDS011;20471;49.680;20.074;2023-04-06T07:19:28;26.20;;;15.30;;
34204;SDS011;20471;49.680;20.074;2023-04-06T07:21:56;25.00;;;14.40;;
34204;SDS011;20471;49.680;20.074;2023-04-06T07:24:24;22.80;;;14.90;;
34204;SDS011;20471;49.680;20.074;2023-04-06T07:26:52;22.60;;;13.60;;
34204;SDS011;20471;49.680;20.074;2023-04-06T07:29:22;24.90;;;14.90;;
34204;SDS011;20471;49.680;20.074;2023-04-06T07:31:50;24.70;;;14.10;;
34204;SDS011;20471;49.680;20.074;2023-04-06T07:34:19;20.80;;;12.20;;
34204;SDS011;20471;49.680;20.074;2023-04-06T07:36:47;20.40;;;12.80;;
34204;SDS011;20471;49.680;20.074;2023-04-06T07:39:15;21.00;;;11.20;;
34204;SDS011;20471;49.680;20.074;2023-04-06T07:41:43;31.40;;;18.00;;
34204;SDS011;20471;49.680;20.074;2023-04-06T07:44:11;35.00;;;20.20;;
34204;SDS011;20471;49.680;20.074;2023-04-06T07:46:39;28.60;;;16.10;;
34204;SDS011;20471;49.680;20.074;2023-04-06T07:49:08;29.00;;;17.20;;
34204;SDS011;20471;49.680;20.074;2023-04-06T07:51:37;21.60;;;13.30;;
34204;SDS011;20471;49.680;20.074;2023-04-06T07:54:06;21.40;;;13.30;;
34204;SDS011;20471;49.680;20.074;2023-04-06T07:56:34;18.10;;;12.10;;
34204;SDS011;20471;49.680;20.074;2023-04-06T07:59:02;16.80;;;10.40;;
34204;SDS011;20471;49.680;20.074;2023-04-06T08:01:30;16.60;;;11.50;;
34204;SDS011;20471;49.680;20.074;2023-04-06T08:03:58;18.20;;;11.20;;
34204;SDS011;20471;49.680;20.074;2023-04-06T08:06:28;22.70;;;10.90;;
34204;SDS011;20471;49.680;20.074;2023-04-06T08:08:56;17.30;;;10.60;;
34204;SDS011;20471;49.680;20.074;2023-04-06T08:11:25;18.00;;;11.30;;
34204;SDS011;20471;49.680;20.074;2023-04-06T08:13:53;17.10;;;10.80;;
34204;SDS011;20471;49.680;20.074;2023-04-06T08:16:23;23.30;;;13.50;;
34204;SDS011;20471;49.680;20.074;2023-04-06T08:18:51;24.80;;;13.50;;
34204;SDS011;20471;49.680;20.074;2023-04-06T08:21:20;35.20;;;18.70;;
34204;SDS011;20471;49.680;20.074;2023-04-06T08:23:48;23.10;;;12.70;;
34204;SDS011;20471;49.680;20.074;2023-04-06T08:26:16;20.20;;;12.80;;
34204;SDS011;20471;49.680;20.074;2023-04-06T08:28:44;24.30;;;13.80;;
34204;SDS011;20471;49.680;20.074;2023-04-06T08:31:12;23.20;;;13.80;;
34204;SDS011;20471;49.680;20.074;2023-04-06T08:33:41;22.00;;;12.70;;
34204;SDS011;20471;49.680;20.074;2023-04-06T08:36:10;21.60;;;12.40;;
34204;SDS011;20471;49.680;20.074;2023-04-06T08:38:39;21.20;;;12.30;;
34204;SDS011;20471;49.680;20.074;2023-04-06T08:41:09;25.20;;;13.00;;
34204;SDS011;20471;49.680;20.074;2023-04-06T08:43:41;18.60;;;12.70;;
34204;SDS011;20471;49.680;20.074;2023-04-06T08:46:12;22.80;;;13.10;;
34204;SDS011;20471;49.680;20.074;2023-04-06T08:48:41;27.20;;;14.40;;
34204;SDS011;20471;49.680;20.074;2023-04-06T08:51:10;23.20;;;13.10;;
34204;SDS011;20471;49.680;20.074;2023-04-06T08:53:39;22.80;;;14.20;;
34204;SDS011;20471;49.680;20.074;2023-04-06T08:56:07;25.00;;;13.90;;
34204;SDS011;20471;49.680;20.074;2023-04-06T08:58:38;23.80;;;14.10;;
34204;SDS011;20471;49.680;20.074;2023-04-06T09:01:08;22.90;;;13.70;;
34204;SDS011;20471;49.680;20.074;2023-04-06T09:03:39;23.20;;;13.50;;
34204;SDS011;20471;49.680;20.074;2023-04-06T09:06:08;25.80;;;12.90;;
34204;SDS011;20471;49.680;20.074;2023-04-06T09:08:38;19.90;;;11.40;;
34204;SDS011;20471;49.680;20.074;2023-04-06T09:11:07;20.00;;;11.80;;
34204;SDS011;20471;49.680;20.074;2023-04-06T09:16:15;14.20;;;10.00;;
34204;SDS011;20471;49.680;20.074;2023-04-06T09:18:43;17.70;;;10.50;;
34204;SDS011;20471;49.680;20.074;2023-04-06T09:21:12;17.30;;;11.30;;
34204;SDS011;20471;49.680;20.074;2023-04-06T09:23:40;18.20;;;11.30;;
34204;SDS011;20471;49.680;20.074;2023-04-06T09:26:09;18.20;;;10.60;;
34204;SDS011;20471;49.680;20.074;2023-04-06T09:28:45;17.80;;;10.80;;
34204;SDS011;20471;49.680;20.074;2023-04-06T09:31:17;17.90;;;10.80;;
34204;SDS011;20471;49.680;20.074;2023-04-06T09:33:52;18.30;;;9.80;;
34204;SDS011;20471;49.680;20.074;2023-04-06T09:36:35;16.10;;;10.60;;
34204;SDS011;20471;49.680;20.074;2023-04-06T09:39:04;17.20;;;10.80;;
34204;SDS011;20471;49.680;20.074;2023-04-06T09:41:35;17.40;;;10.80;;
34204;SDS011;20471;49.680;20.074;2023-04-06T09:44:07;15.60;;;10.10;;
34204;SDS011;20471;49.680;20.074;2023-04-06T09:49:05;20.80;;;12.00;;
34204;SDS011;20471;49.680;20.074;2023-04-06T09:51:39;19.30;;;12.50;;
34204;SDS011;20471;49.680;20.074;2023-04-06T09:54:08;22.00;;;13.90;;
34204;SDS011;20471;49.680;20.074;2023-04-06T09:56:44;22.80;;;12.50;;
34204;SDS011;20471;49.680;20.074;2023-04-06T09:59:17;20.30;;;11.40;;
34204;SDS011;20471;49.680;20.074;2023-04-06T10:01:53;32.30;;;15.50;;
34204;SDS011;20471;49.680;20.074;2023-04-06T10:04:37;35.10;;;17.20;;
34204;SDS011;20471;49.680;20.074;2023-04-06T10:07:11;33.90;;;18.60;;
34204;SDS011;20471;49.680;20.074;2023-04-06T10:09:39;46.80;;;26.30;;
34204;SDS011;20471;49.680;20.074;2023-04-06T10:12:08;27.10;;;18.60;;
34204;SDS011;20471;49.680;20.074;2023-04-06T10:14:37;22.20;;;15.30;;
34204;SDS011;20471;49.680;20.074;2023-04-06T10:17:05;22.30;;;14.10;;
34204;SDS011;20471;49.680;20.074;2023-04-06T10:19:44;23.60;;;14.90;;
34204;SDS011;20471;49.680;20.074;2023-04-06T10:22:18;23.80;;;16.60;;
34204;SDS011;20471;49.680;20.074;2023-04-06T10:24:54;27.80;;;16.50;;
34204;SDS011;20471;49.680;20.074;2023-04-06T10:27:28;44.50;;;23.20;;
34204;SDS011;20471;49.680;20.074;2023-04-06T10:30:01;41.30;;;24.00;;
34204;SDS011;20471;49.680;20.074;2023-04-06T10:32:31;35.50;;;20.80;;
34204;SDS011;20471;49.680;20.074;2023-04-06T10:35:07;26.20;;;17.80;;
34204;SDS011;20471;49.680;20.074;2023-04-06T10:42:53;28.90;;;17.80;;
34204;SDS011;20471;49.680;20.074;2023-04-06T10:45:24;29.70;;;18.60;;
34204;SDS011;20471;49.680;20.074;2023-04-06T10:47:53;34.00;;;22.20;;
34204;SDS011;20471;49.680;20.074;2023-04-06T10:50:22;33.90;;;20.10;;
34204;SDS011;20471;49.680;20.074;2023-04-06T10:53:01;27.20;;;17.80;;
34204;SDS011;20471;49.680;20.074;2023-04-06T10:55:30;30.80;;;19.40;;
34204;SDS011;20471;49.680;20.074;2023-04-06T10:57:58;53.70;;;27.50;;
34204;SDS011;20471;49.680;20.074;2023-04-06T11:00:26;69.30;;;34.30;;
34204;SDS011;20471;49.680;20.074;2023-04-06T11:03:01;40.70;;;23.20;;
34204;SDS011;20471;49.680;20.074;2023-04-06T11:05:29;39.60;;;24.00;;
34204;SDS011;20471;49.680;20.074;2023-04-06T11:07:57;50.50;;;27.30;;
34204;SDS011;20471;49.680;20.074;2023-04-06T11:10:25;42.50;;;25.80;;
34204;SDS011;20471;49.680;20.074;2023-04-06T11:12:54;31.80;;;20.30;;
34204;SDS011;20471;49.680;20.074;2023-04-06T11:15:22;39.70;;;22.60;;
34204;SDS011;20471;49.680;20.074;2023-04-06T11:17:51;25.40;;;16.90;;
34204;SDS011;20471;49.680;20.074;2023-04-06T11:20:20;32.30;;;19.80;;
34204;SDS011;20471;49.680;20.074;2023-04-06T11:22:48;38.60;;;21.80;;
34204;SDS011;20471;49.680;20.074;2023-04-06T11:25:17;37.20;;;21.40;;
34204;SDS011;20471;49.680;20.074;2023-04-06T11:27:46;39.50;;;20.40;;
34204;SDS011;20471;49.680;20.074;2023-04-06T11:30:15;34.80;;;19.00;;
34204;SDS011;20471;49.680;20.074;2023-04-06T11:32:44;32.50;;;18.20;;
34204;SDS011;20471;49.680;20.074;2023-04-06T11:35:20;31.20;;;18.90;;
34204;SDS011;20471;49.680;20.074;2023-04-06T11:37:49;34.90;;;21.30;;
34204;SDS011;20471;49.680;20.074;2023-04-06T11:40:22;34.70;;;20.00;;
34204;SDS011;20471;49.680;20.074;2023-04-06T11:42:51;31.50;;;18.30;;
34204;SDS011;20471;49.680;20.074;2023-04-06T11:45:21;29.90;;;19.20;;
34204;SDS011;20471;49.680;20.074;2023-04-06T11:47:57;31.70;;;17.60;;
34204;SDS011;20471;49.680;20.074;2023-04-06T11:50:31;27.40;;;16.60;;
34204;SDS011;20471;49.680;20.074;2023-04-06T11:53:01;33.70;;;20.80;;
34204;SDS011;20471;49.680;20.074;2023-04-06T11:55:36;35.20;;;20.70;;
34204;SDS011;20471;49.680;20.074;2023-04-06T11:58:06;30.90;;;20.10;;
34204;SDS011;20471;49.680;20.074;2023-04-06T12:00:34;29.70;;;19.40;;
34204;SDS011;20471;49.680;20.074;2023-04-06T12:03:03;28.50;;;19.30;;
34204;SDS011;20471;49.680;20.074;2023-04-06T12:05:32;29.30;;;20.20;;
34204;SDS011;20471;49.680;20.074;2023-04-06T12:08:01;27.30;;;19.00;;
34204;SDS011;20471;49.680;20.074;2023-04-06T12:10:29;28.80;;;18.60;;
34204;SDS011;20471;49.680;20.074;2023-04-06T12:12:57;24.10;;;17.20;;
34204;SDS011;20471;49.680;20.074;2023-04-06T12:15:25;23.20;;;16.40;;
34204;SDS011;20471;49.680;20.074;2023-04-06T12:17:53;23.60;;;15.10;;
34204;SDS011;20471;49.680;20.074;2023-04-06T12:20:21;23.30;;;15.40;;
34204;SDS011;20471;49.680;20.074;2023-04-06T12:22:49;23.60;;;15.00;;
34204;SDS011;20471;49.680;20.074;2023-04-06T12:25:18;20.60;;;15.20;;
34204;SDS011;20471;49.680;20.074;2023-04-06T12:27:46;24.90;;;16.50;;
34204;SDS011;20471;49.680;20.074;2023-04-06T12:30:14;25.30;;;16.90;;
34204;SDS011;20471;49.680;20.074;2023-04-06T12:32:42;29.50;;;17.10;;
34204;SDS011;20471;49.680;20.074;2023-04-06T12:35:11;30.20;;;18.80;;
34204;SDS011;20471;49.680;20.074;2023-04-06T12:37:42;25.60;;;16.00;;
34204;SDS011;20471;49.680;20.074;2023-04-06T12:40:10;27.80;;;17.00;;
34204;SDS011;20471;49.680;20.074;2023-04-06T12:42:38;27.40;;;17.40;;
34204;SDS011;20471;49.680;20.074;2023-04-06T12:45:08;28.90;;;17.00;;
34204;SDS011;20471;49.680;20.074;2023-04-06T12:47:36;27.50;;;17.20;;
34204;SDS011;20471;49.680;20.074;2023-04-06T12:50:05;31.50;;;18.10;;
34204;SDS011;20471;49.680;20.074;2023-04-06T12:52:34;30.00;;;16.40;;
34204;SDS011;20471;49.680;20.074;2023-04-06T12:55:02;24.60;;;16.30;;
34204;SDS011;20471;49.680;20.074;2023-04-06T12:57:31;34.80;;;19.10;;
34204;SDS011;20471;49.680;20.074;2023-04-06T12:59:59;30.60;;;17.20;;
34204;SDS011;20471;49.680;20.074;2023-04-06T13:02:27;24.50;;;17.20;;
34204;SDS011;20471;49.680;20.074;2023-04-06T13:04:56;25.00;;;16.60;;
34204;SDS011;20471;49.680;20.074;2023-04-06T13:07:24;23.60;;;16.60;;
34204;SDS011;20471;49.680;20.074;2023-04-06T13:09:52;34.40;;;20.10;;
34204;SDS011;20471;49.680;20.074;2023-04-06T13:12:20;27.90;;;17.20;;
34204;SDS011;20471;49.680;20.074;2023-04-06T13:14:48;29.00;;;18.30;;
34204;SDS011;20471;49.680;20.074;2023-04-06T13:17:18;25.50;;;18.10;;
34204;SDS011;20471;49.680;20.074;2023-04-06T13:19:47;29.80;;;19.20;;
34204;SDS011;20471;49.680;20.074;2023-04-06T13:22:15;26.50;;;18.60;;
34204;SDS011;20471;49.680;20.074;2023-04-06T13:24:43;30.20;;;19.80;;
34204;SDS011;20471;49.680;20.074;2023-04-06T13:27:11;30.30;;;20.10;;
34204;SDS011;20471;49.680;20.074;2023-04-06T13:29:40;35.60;;;22.70;;
34204;SDS011;20471;49.680;20.074;2023-04-06T13:32:08;36.70;;;22.50;;
34204;SDS011;20471;49.680;20.074;2023-04-06T13:34:37;37.80;;;22.70;;
34204;SDS011;20471;49.680;20.074;2023-04-06T13:37:05;32.90;;;21.70;;
34204;SDS011;20471;49.680;20.074;2023-04-06T13:39:33;31.50;;;22.00;;
34204;SDS011;20471;49.680;20.074;2023-04-06T13:42:01;36.70;;;21.70;;
34204;SDS011;20471;49.680;20.074;2023-04-06T13:44:29;31.50;;;21.90;;
34204;SDS011;20471;49.680;20.074;2023-04-06T13:46:57;36.80;;;23.90;;
34204;SDS011;20471;49.680;20.074;2023-04-06T13:49:26;34.10;;;21.90;;
34204;SDS011;20471;49.680;20.074;2023-04-06T13:51:54;32.80;;;21.80;;
34204;SDS011;20471;49.680;20.074;2023-04-06T13:54:22;33.60;;;21.70;;
34204;SDS011;20471;49.680;20.074;2023-04-06T13:56:51;34.60;;;21.80;;
34204;SDS011;20471;49.680;20.074;2023-04-06T13:59:19;28.60;;;19.50;;
34204;SDS011;20471;49.680;20.074;2023-04-06T14:01:47;32.50;;;21.00;;
34204;SDS011;20471;49.680;20.074;2023-04-06T14:04:16;29.10;;;21.30;;
34204;SDS011;20471;49.680;20.074;2023-04-06T14:06:44;35.50;;;22.80;;
34204;SDS011;20471;49.680;20.074;2023-04-06T14:09:13;37.20;;;22.50;;
34204;SDS011;20471;49.680;20.074;2023-04-06T14:11:41;34.40;;;23.20;;
34204;SDS011;20471;49.680;20.074;2023-04-06T14:14:09;34.40;;;23.10;;
34204;SDS011;20471;49.680;20.074;2023-04-06T14:16:37;36.30;;;22.90;;
34204;SDS011;20471;49.680;20.074;2023-04-06T14:19:06;35.90;;;23.40;;
34204;SDS011;20471;49.680;20.074;2023-04-06T14:21:34;35.00;;;22.10;;
34204;SDS011;20471;49.680;20.074;2023-04-06T14:24:03;38.70;;;24.80;;
34204;SDS011;20471;49.680;20.074;2023-04-06T14:26:31;37.60;;;24.10;;
34204;SDS011;20471;49.680;20.074;2023-04-06T14:28:59;35.70;;;22.90;;